createdAt,value
2022-12-14T00:01:18.245Z,15.20
2022-12-14T00:03:21.778Z,18.38
2022-12-14T00:05:24.884Z,20.13
2022-12-14T00:07:29.785Z,17.80
2022-12-14T00:09:32.855Z,14.98
2022-12-14T00:11:37.120Z,14.40
2022-12-14T00:13:40.993Z,13.93
2022-12-14T00:15:44.014Z,14.50
2022-12-14T00:17:47.083Z,10.02
2022-12-14T00:19:50.099Z,8.90
2022-12-14T00:21:53.265Z,12.38
2022-12-14T00:24:00.033Z,12.65
2022-12-14T00:26:10.384Z,13.48
2022-12-14T00:28:15.011Z,12.35
2022-12-14T00:30:20.415Z,13.25
2022-12-14T00:32:23.429Z,13.60
2022-12-14T00:34:28.615Z,14.10
2022-12-14T00:36:32.105Z,11.60
2022-12-14T00:38:35.388Z,13.57
2022-12-14T00:40:38.341Z,13.85
2022-12-14T00:42:41.376Z,12.73
2022-12-14T00:44:46.548Z,12.70
2022-12-14T00:46:49.583Z,12.10
2022-12-14T00:49:01.619Z,12.73
2022-12-14T00:51:05.004Z,9.73
2022-12-14T00:53:09.707Z,17.20
2022-12-14T00:55:12.762Z,38.60
2022-12-14T00:57:16.244Z,48.38
2022-12-14T00:59:24.220Z,18.90
2022-12-14T01:01:31.707Z,15.93
2022-12-14T01:03:35.633Z,15.05
2022-12-14T01:05:39.080Z,14.20
2022-12-14T01:07:42.123Z,15.23
2022-12-14T01:09:45.129Z,12.20
2022-12-14T01:11:48.857Z,13.30
2022-12-14T01:13:56.528Z,12.95
2022-12-14T01:16:04.493Z,16.73
2022-12-14T01:18:08.924Z,14.43
2022-12-14T01:20:12.913Z,15.35
2022-12-14T01:22:15.854Z,13.63
2022-12-14T01:24:18.892Z,13.30
2022-12-14T01:26:22.168Z,12.93
2022-12-14T01:28:25.137Z,12.27
2022-12-14T01:30:28.159Z,14.35
2022-12-14T01:32:31.240Z,14.48
2022-12-14T01:34:35.576Z,13.80
2022-12-14T01:36:39.328Z,13.05
2022-12-14T01:38:42.661Z,16.60
2022-12-14T01:40:45.605Z,13.63
2022-12-14T01:42:49.909Z,14.50
2022-12-14T01:44:56.665Z,13.23
2022-12-14T01:47:05.095Z,13.23
2022-12-14T01:49:15.236Z,15.38
2022-12-14T01:51:19.766Z,13.63
2022-12-14T01:53:23.517Z,14.25
2022-12-14T01:55:28.976Z,14.00
2022-12-14T01:57:35.298Z,13.50
2022-12-14T01:59:40.653Z,13.27
2022-12-14T02:01:43.976Z,14.18
2022-12-14T02:03:52.967Z,30.90
2022-12-14T02:05:58.329Z,39.88
2022-12-14T02:08:04.265Z,32.85
2022-12-14T02:10:09.132Z,41.83
2022-12-14T02:12:14.505Z,41.08
2022-12-14T02:14:17.462Z,52.83
2022-12-14T02:16:20.514Z,35.58
2022-12-14T02:18:26.912Z,23.77
2022-12-14T02:20:42.701Z,31.88
2022-12-14T02:23:18.815Z,24.52
2022-12-14T02:25:58.109Z,23.08
2022-12-14T02:28:18.393Z,33.25
2022-12-14T02:30:23.510Z,22.95
2022-12-14T02:32:58.897Z,28.90
2022-12-14T02:35:05.216Z,25.50
2022-12-14T02:37:12.537Z,21.40
2022-12-14T02:39:24.015Z,26.27
2022-12-14T02:41:38.241Z,36.78
2022-12-14T02:43:49.125Z,40.67
2022-12-14T02:46:02.785Z,27.80
2022-12-14T02:48:08.697Z,21.38
2022-12-14T02:50:15.730Z,17.40
2022-12-14T02:52:28.361Z,15.30
2022-12-14T02:54:35.799Z,16.90
2022-12-14T02:56:42.690Z,17.90
2022-12-14T02:58:50.509Z,16.40
2022-12-14T03:00:56.287Z,17.70
2022-12-14T03:02:59.846Z,19.83
2022-12-14T03:05:02.913Z,16.60
2022-12-14T03:07:27.022Z,18.58
2022-12-14T03:09:31.318Z,17.63
2022-12-14T03:11:39.066Z,17.15
2022-12-14T03:13:47.501Z,16.40
2022-12-14T03:15:58.368Z,17.27
2022-12-14T03:18:02.709Z,15.77
2022-12-14T03:20:09.342Z,18.30
2022-12-14T03:22:16.113Z,17.40
2022-12-14T03:24:23.167Z,18.65
2022-12-14T03:26:27.827Z,18.27
2022-12-14T03:28:33.793Z,18.15
2022-12-14T03:30:59.540Z,18.23
2022-12-14T03:33:07.028Z,17.73
2022-12-14T03:35:15.746Z,19.58
2022-12-14T03:37:22.810Z,16.13
2022-12-14T03:39:29.077Z,19.13
2022-12-14T03:41:36.802Z,18.33
2022-12-14T03:43:51.193Z,15.80
2022-12-14T03:45:58.988Z,19.60
2022-12-14T03:48:08.107Z,16.08
2022-12-14T03:50:15.988Z,20.95
2022-12-14T03:52:25.732Z,16.85
2022-12-14T03:54:37.348Z,18.88
2022-12-14T03:56:42.977Z,16.55
2022-12-14T03:58:55.495Z,18.48
2022-12-14T04:01:05.511Z,21.05
2022-12-14T04:03:15.561Z,18.58
2022-12-14T04:05:23.023Z,17.38
2022-12-14T04:07:34.603Z,21.92
2022-12-14T04:09:43.876Z,21.35
2022-12-14T04:12:07.774Z,21.95
2022-12-14T04:14:32.197Z,20.70
2022-12-14T04:16:57.574Z,21.63
2022-12-14T04:19:07.712Z,19.65
2022-12-14T04:21:13.403Z,18.55
2022-12-14T04:23:41.285Z,20.27
2022-12-14T04:26:05.181Z,19.50
2022-12-14T04:28:33.200Z,17.60
2022-12-14T04:30:38.701Z,17.80
2022-12-14T04:32:43.608Z,18.98
2022-12-14T04:34:51.981Z,20.10
2022-12-14T04:36:57.251Z,18.50
2022-12-14T04:39:03.211Z,19.63
2022-12-14T04:41:09.254Z,16.95
2022-12-14T04:43:14.808Z,19.23
2022-12-14T04:45:22.120Z,20.30
2022-12-14T04:47:31.310Z,18.30
2022-12-14T04:49:41.028Z,21.17
2022-12-14T04:51:49.024Z,20.33
2022-12-14T04:53:54.172Z,21.58
2022-12-14T04:56:02.205Z,21.30
2022-12-14T04:58:10.344Z,19.67
2022-12-14T05:00:14.009Z,22.27
2022-12-14T05:02:21.844Z,20.75
2022-12-14T05:04:34.445Z,19.50
2022-12-14T05:06:41.915Z,21.70
2022-12-14T05:09:04.160Z,21.55
2022-12-14T05:11:41.352Z,23.60
2022-12-14T05:13:37.795Z,22.15
2022-12-14T05:15:43.381Z,23.38
2022-12-14T05:17:46.434Z,21.83
2022-12-14T05:19:50.945Z,22.85
2022-12-14T05:21:54.089Z,19.13
2022-12-14T05:23:59.194Z,21.15
2022-12-14T05:26:02.153Z,22.08
2022-12-14T05:28:05.621Z,21.88
2022-12-14T05:30:09.849Z,20.23
2022-12-14T05:32:14.037Z,21.92
2022-12-14T05:34:17.099Z,19.50
2022-12-14T05:36:20.605Z,19.88
2022-12-14T05:38:23.584Z,22.70
2022-12-14T05:40:27.935Z,29.70
2022-12-14T05:42:31.352Z,23.75
2022-12-14T05:44:34.305Z,21.85
2022-12-14T05:46:37.379Z,22.15
2022-12-14T05:48:43.662Z,21.02
2022-12-14T05:50:49.188Z,23.52
2022-12-14T05:52:52.646Z,22.05
2022-12-14T05:55:00.908Z,25.33
2022-12-14T05:57:09.623Z,23.20
2022-12-14T05:59:16.193Z,25.40
2022-12-14T06:01:20.614Z,23.98
2022-12-14T06:03:26.893Z,21.65
2022-12-14T06:05:32.001Z,24.90
2022-12-14T06:07:35.619Z,19.52
2022-12-14T06:09:40.145Z,22.58
2022-12-14T06:11:44.546Z,22.08
2022-12-14T06:13:52.602Z,24.52
2022-12-14T06:15:56.394Z,24.52
2022-12-14T06:18:00.828Z,24.10
2022-12-14T06:20:05.129Z,24.13
2022-12-14T06:22:08.448Z,23.20
2022-12-14T06:24:13.483Z,27.88
2022-12-14T06:26:18.757Z,23.17
2022-12-14T06:28:22.316Z,21.98
2022-12-14T06:30:27.306Z,23.60
2022-12-14T06:32:31.222Z,23.20
2022-12-14T06:34:39.825Z,24.27
2022-12-14T06:36:44.510Z,22.90
2022-12-14T06:38:53.614Z,20.70
2022-12-14T06:40:56.734Z,24.35
2022-12-14T06:43:00.548Z,22.42
2022-12-14T06:45:04.039Z,23.17
2022-12-14T06:47:08.597Z,23.33
2022-12-14T06:49:14.358Z,22.00
2022-12-14T06:51:17.506Z,23.63
2022-12-14T06:53:20.538Z,22.30
2022-12-14T06:55:23.883Z,23.40
2022-12-14T06:57:29.455Z,23.42
2022-12-14T06:59:32.678Z,21.73
2022-12-14T07:01:38.328Z,23.40
2022-12-14T07:03:46.008Z,21.38
2022-12-14T07:05:50.027Z,29.40
2022-12-14T07:07:53.306Z,27.25
2022-12-14T07:10:08.268Z,23.23
2022-12-14T07:12:14.419Z,28.08
2022-12-14T07:14:18.028Z,23.67
2022-12-14T07:16:23.902Z,26.70
2022-12-14T07:18:51.620Z,27.80
2022-12-14T07:20:58.785Z,27.45
2022-12-14T07:23:03.253Z,28.25
2022-12-14T07:25:08.185Z,25.02
2022-12-14T07:27:12.481Z,28.05
2022-12-14T07:29:17.126Z,29.55
2022-12-14T07:31:40.840Z,29.95
2022-12-14T07:33:45.890Z,31.40
2022-12-14T07:35:51.609Z,28.95
2022-12-14T07:37:54.730Z,24.10
2022-12-14T07:39:57.921Z,27.80
2022-12-14T07:42:02.105Z,27.33
2022-12-14T07:44:06.476Z,31.08
2022-12-14T07:46:12.116Z,28.17
2022-12-14T07:48:22.481Z,29.45
2022-12-14T07:50:27.446Z,29.83
2022-12-14T07:52:37.396Z,29.92
2022-12-14T07:54:43.441Z,30.85
2022-12-14T07:56:49.788Z,30.98
2022-12-14T07:58:54.206Z,27.88
2022-12-14T08:00:57.733Z,32.17
2022-12-14T08:03:02.360Z,30.13
2022-12-14T08:05:10.715Z,29.17
2022-12-14T08:07:15.720Z,31.08
2022-12-14T08:09:21.928Z,32.03
2022-12-14T08:11:25.806Z,30.40
2022-12-14T08:13:31.364Z,31.20
2022-12-14T08:15:38.705Z,26.48
2022-12-14T08:17:52.403Z,25.60
2022-12-14T08:19:56.745Z,29.40
2022-12-14T08:22:01.076Z,28.58
2022-12-14T08:24:05.345Z,28.30
2022-12-14T08:26:09.963Z,30.95
2022-12-14T08:28:12.960Z,28.40
2022-12-14T08:30:16.586Z,31.98
2022-12-14T08:32:20.452Z,32.75
2022-12-14T08:34:24.019Z,31.08
2022-12-14T08:36:29.188Z,31.42
2022-12-14T08:38:32.352Z,36.85
2022-12-14T08:40:36.184Z,37.55
2022-12-14T08:42:40.729Z,75.30
2022-12-14T08:44:43.772Z,46.50
2022-12-14T08:46:47.036Z,31.42
2022-12-14T08:48:55.077Z,35.60
2022-12-14T08:51:03.019Z,32.30
2022-12-14T08:53:06.385Z,31.90
2022-12-14T08:55:11.163Z,31.52
2022-12-14T08:57:15.132Z,29.30
2022-12-14T08:59:52.129Z,33.63
2022-12-14T09:01:45.717Z,35.00
2022-12-14T09:03:49.801Z,33.80
2022-12-14T09:05:54.200Z,28.30
2022-12-14T09:07:57.418Z,36.72
2022-12-14T09:10:00.466Z,31.40
2022-12-14T09:12:06.580Z,36.60
2022-12-14T09:14:10.070Z,32.63
2022-12-14T09:16:17.589Z,31.60
2022-12-14T09:18:21.118Z,31.65
2022-12-14T09:20:24.328Z,31.13
2022-12-14T09:22:27.504Z,36.25
2022-12-14T09:24:31.379Z,39.10
2022-12-14T09:26:34.901Z,32.45
2022-12-14T09:28:40.611Z,34.47
2022-12-14T09:30:46.251Z,35.30
2022-12-14T09:32:51.762Z,37.20
2022-12-14T09:34:57.201Z,33.90
2022-12-14T09:37:05.315Z,33.70
2022-12-14T09:39:08.353Z,33.78
2022-12-14T09:41:24.522Z,37.50
2022-12-14T09:43:37.947Z,30.80
2022-12-14T09:45:49.682Z,32.22
2022-12-14T09:47:58.415Z,34.30
2022-12-14T09:50:05.062Z,33.40
2022-12-14T09:52:15.975Z,32.90
2022-12-14T09:54:24.614Z,35.55
2022-12-14T09:56:29.784Z,34.28
2022-12-14T09:58:34.871Z,35.72
2022-12-14T10:00:51.437Z,42.88
2022-12-14T10:03:16.267Z,34.83
2022-12-14T10:05:29.123Z,39.45
2022-12-14T10:07:37.655Z,40.38
2022-12-14T10:09:44.641Z,38.13
2022-12-14T10:11:53.585Z,36.03
2022-12-14T10:14:09.907Z,41.55
2022-12-14T10:16:21.000Z,37.08
2022-12-14T10:18:59.107Z,52.92
2022-12-14T10:21:06.457Z,38.33
2022-12-14T10:23:16.939Z,53.40
2022-12-14T10:25:28.568Z,55.63
2022-12-14T10:27:48.034Z,37.30
2022-12-14T10:29:59.457Z,38.90
2022-12-14T10:32:12.805Z,36.10
2022-12-14T10:34:22.954Z,36.30
2022-12-14T10:36:31.841Z,35.50
2022-12-14T10:38:42.228Z,39.60
2022-12-14T10:40:49.748Z,37.08
2022-12-14T10:43:01.093Z,35.60
2022-12-14T10:45:39.805Z,38.92
2022-12-14T10:47:40.132Z,36.72
2022-12-14T10:49:50.208Z,37.47
2022-12-14T10:51:56.325Z,35.50
2022-12-14T10:54:04.342Z,39.05
2022-12-14T10:56:12.508Z,38.60
2022-12-14T10:58:15.561Z,38.35
2022-12-14T11:00:23.481Z,35.20
2022-12-14T11:02:29.640Z,35.45
2022-12-14T11:04:35.860Z,37.13
2022-12-14T11:06:40.367Z,40.80
2022-12-14T11:08:48.031Z,51.20
2022-12-14T11:11:11.561Z,39.10
2022-12-14T11:13:18.567Z,55.67
2022-12-14T11:15:25.272Z,41.60
2022-12-14T11:17:34.343Z,50.53
2022-12-14T11:19:37.510Z,44.05
2022-12-14T11:21:42.033Z,49.70
2022-12-14T11:23:46.163Z,44.88
2022-12-14T11:25:50.920Z,42.33
2022-12-14T11:27:54.109Z,43.50
2022-12-14T11:29:57.479Z,45.47
2022-12-14T11:32:01.374Z,47.53
2022-12-14T11:34:05.935Z,46.95
2022-12-14T11:36:10.052Z,50.55
2022-12-14T11:38:16.209Z,46.63
2022-12-14T11:40:21.358Z,57.40
2022-12-14T11:42:24.915Z,50.20
2022-12-14T11:44:30.074Z,40.65
2022-12-14T11:46:52.630Z,38.33
2022-12-14T11:48:58.076Z,37.38
2022-12-14T11:51:10.894Z,41.25
2022-12-14T11:53:17.444Z,37.58
2022-12-14T11:55:26.861Z,39.50
2022-12-14T11:57:32.597Z,38.80
2022-12-14T11:59:39.808Z,34.70
2022-12-14T12:01:43.150Z,38.00
2022-12-14T12:03:47.424Z,39.33
2022-12-14T12:05:50.925Z,34.45
2022-12-14T12:07:56.560Z,40.90
2022-12-14T12:10:16.733Z,44.00
2022-12-14T12:12:22.091Z,39.97
2022-12-14T12:14:30.607Z,40.40
2022-12-14T12:16:35.561Z,43.63
2022-12-14T12:18:46.449Z,44.45
2022-12-14T12:20:53.435Z,46.85
2022-12-14T12:23:00.542Z,44.08
2022-12-14T12:25:29.598Z,48.38
2022-12-14T12:27:34.860Z,42.90
2022-12-14T12:29:40.683Z,44.65
2022-12-14T12:31:48.375Z,47.55
2022-12-14T12:33:54.668Z,54.15
2022-12-14T12:36:02.658Z,47.83
2022-12-14T12:38:10.662Z,41.95
2022-12-14T12:40:20.901Z,39.38
2022-12-14T12:42:30.481Z,42.15
2022-12-14T12:44:41.916Z,41.78
2022-12-14T12:47:22.977Z,50.55
2022-12-14T12:49:18.505Z,44.67
2022-12-14T12:51:24.476Z,43.90
2022-12-14T12:53:33.066Z,48.08
2022-12-14T12:55:42.755Z,50.92
2022-12-14T12:57:49.247Z,43.58
2022-12-14T12:59:54.836Z,46.85
2022-12-14T13:02:00.962Z,50.85
2022-12-14T13:04:06.584Z,45.83
2022-12-14T13:06:16.322Z,43.08
2022-12-14T13:08:24.658Z,47.33
2022-12-14T13:10:31.693Z,40.53
2022-12-14T13:12:38.335Z,45.42
2022-12-14T13:14:43.631Z,40.35
2022-12-14T13:16:59.947Z,40.28
2022-12-14T13:19:40.460Z,42.67
2022-12-14T13:21:35.200Z,43.80
2022-12-14T13:23:46.322Z,42.17
2022-12-14T13:25:56.132Z,40.15
2022-12-14T13:28:17.146Z,42.13
2022-12-14T13:30:30.410Z,47.30
2022-12-14T13:32:45.354Z,43.72
2022-12-14T13:34:55.550Z,43.40
2022-12-14T13:37:11.847Z,42.65
2022-12-14T13:40:07.131Z,41.58
2022-12-14T13:42:17.755Z,44.63
2022-12-14T13:44:44.113Z,61.08
2022-12-14T13:46:47.635Z,51.05
2022-12-14T13:48:53.142Z,41.92
2022-12-14T13:51:01.941Z,36.17
2022-12-14T13:53:10.511Z,41.03
2022-12-14T13:55:29.368Z,43.50
2022-12-14T13:57:32.862Z,43.92
2022-12-14T13:59:42.352Z,43.50
2022-12-14T14:01:57.793Z,42.53
2022-12-14T14:04:22.774Z,39.47
2022-12-14T14:06:38.499Z,42.25
2022-12-14T14:08:46.337Z,43.35
2022-12-14T14:10:54.172Z,45.28
2022-12-14T14:14:05.133Z,47.38
2022-12-14T14:16:30.558Z,51.75
2022-12-14T14:18:36.450Z,47.70
2022-12-14T14:20:42.226Z,46.63
2022-12-14T14:23:23.603Z,49.53
2022-12-14T14:25:40.826Z,51.67
2022-12-14T14:27:50.813Z,47.13
2022-12-14T14:29:55.902Z,49.42
2022-12-14T14:32:02.695Z,47.28
2022-12-14T14:34:06.472Z,41.92
2022-12-14T14:36:11.864Z,42.10
2022-12-14T14:38:25.343Z,43.85
2022-12-14T14:41:06.343Z,44.60
2022-12-14T14:43:00.316Z,41.10
2022-12-14T14:45:05.858Z,42.25
2022-12-14T14:47:27.695Z,42.80
2022-12-14T14:49:40.967Z,38.42
2022-12-14T14:51:43.995Z,38.95
2022-12-14T14:53:50.597Z,43.50
2022-12-14T14:56:03.539Z,39.53
2022-12-14T14:58:29.196Z,44.17
2022-12-14T15:00:40.929Z,41.30
2022-12-14T15:02:45.959Z,47.00
2022-12-14T15:04:51.635Z,44.65
2022-12-14T15:06:58.533Z,41.10
2022-12-14T15:09:06.304Z,43.53
2022-12-14T15:11:16.529Z,45.63
2022-12-14T15:13:22.524Z,45.22
2022-12-14T15:15:34.500Z,53.33
2022-12-14T15:17:37.859Z,45.40
2022-12-14T15:19:47.971Z,45.88
2022-12-14T15:21:52.694Z,42.80
2022-12-14T15:23:57.220Z,43.33
2022-12-14T15:26:02.112Z,51.58
2022-12-14T15:28:07.564Z,44.42
2022-12-14T15:30:20.947Z,40.10
2022-12-14T15:32:25.323Z,50.72
2022-12-14T15:34:30.372Z,45.33
2022-12-14T15:36:37.454Z,40.45
2022-12-14T15:38:40.546Z,48.10
2022-12-14T15:40:55.030Z,40.63
2022-12-14T15:43:00.009Z,36.95
2022-12-14T15:45:10.159Z,37.65
2022-12-14T15:47:27.597Z,38.78
2022-12-14T15:49:30.764Z,33.20
2022-12-14T15:51:37.759Z,43.33
2022-12-14T15:53:42.433Z,40.08
2022-12-14T15:55:53.516Z,38.40
2022-12-14T15:58:07.723Z,39.45
2022-12-14T16:00:13.437Z,42.55
2022-12-14T16:02:22.913Z,39.95
2022-12-14T16:04:29.161Z,40.83
2022-12-14T16:06:33.622Z,40.50
2022-12-14T16:08:39.795Z,41.55
2022-12-14T16:10:43.846Z,41.47
2022-12-14T16:12:48.688Z,45.92
2022-12-14T16:14:54.303Z,43.90
2022-12-14T16:16:57.751Z,43.35
2022-12-14T16:19:25.306Z,42.00
2022-12-14T16:21:29.824Z,42.13
2022-12-14T16:23:34.786Z,39.13
2022-12-14T16:25:52.075Z,41.80
2022-12-14T16:27:55.726Z,39.25
2022-12-14T16:30:17.638Z,39.72
2022-12-14T16:32:21.943Z,42.78
2022-12-14T16:34:27.433Z,42.58
2022-12-14T16:36:31.285Z,39.20
2022-12-14T16:38:39.210Z,45.50
2022-12-14T16:40:57.339Z,43.13
2022-12-14T16:43:00.460Z,39.47
2022-12-14T16:45:03.781Z,42.88
2022-12-14T16:47:26.810Z,41.10
2022-12-14T16:49:33.144Z,38.67
2022-12-14T16:54:06.449Z,44.60
2022-12-14T16:56:17.147Z,42.88
2022-12-14T16:58:20.239Z,38.47
2022-12-14T17:00:29.511Z,40.75
2022-12-14T17:02:35.675Z,42.05
2022-12-14T17:04:39.204Z,39.25
2022-12-14T17:06:46.931Z,40.13
2022-12-14T17:08:49.915Z,42.95
2022-12-14T17:10:53.025Z,41.35
2022-12-14T17:12:59.043Z,38.85
2022-12-14T17:15:02.148Z,40.72
2022-12-14T17:17:05.669Z,37.40
2022-12-14T17:19:09.135Z,39.05
2022-12-14T17:21:18.489Z,37.50
2022-12-14T17:23:21.708Z,39.17
2022-12-14T17:25:25.289Z,38.20
2022-12-14T17:27:28.471Z,35.92
2022-12-14T17:29:34.223Z,37.53
2022-12-14T17:31:39.888Z,40.03
2022-12-14T17:33:46.299Z,40.28
2022-12-14T17:35:49.521Z,38.53
2022-12-14T17:37:55.246Z,34.72
2022-12-14T17:39:59.683Z,37.85
2022-12-14T17:42:02.751Z,39.38
2022-12-14T17:44:06.148Z,36.53
2022-12-14T17:46:10.654Z,40.88
2022-12-14T17:48:14.453Z,47.70
2022-12-14T17:50:19.054Z,42.97
2022-12-14T17:52:24.908Z,51.08
2022-12-14T17:54:29.283Z,45.75
2022-12-14T17:56:32.437Z,54.13
2022-12-14T17:58:35.519Z,45.75
2022-12-14T18:00:56.849Z,47.30
2022-12-14T18:03:05.072Z,80.95
2022-12-14T18:05:15.611Z,84.13
2022-12-14T18:07:18.710Z,67.70
2022-12-14T18:09:21.870Z,57.05
2022-12-14T18:11:26.848Z,68.82
2022-12-14T18:13:32.312Z,43.42
2022-12-14T18:15:38.898Z,38.92
2022-12-14T18:17:41.973Z,38.47
2022-12-14T18:19:47.903Z,41.10
2022-12-14T18:21:54.925Z,39.92
2022-12-14T18:24:11.989Z,41.50
2022-12-14T18:26:19.755Z,38.38
2022-12-14T18:28:23.418Z,38.08
2022-12-14T18:30:27.243Z,41.88
2022-12-14T18:32:30.378Z,39.67
2022-12-14T18:34:33.472Z,42.25
2022-12-14T18:36:37.981Z,36.53
2022-12-14T18:38:50.036Z,36.55
2022-12-14T18:40:54.942Z,39.20
2022-12-14T18:42:58.262Z,33.25
2022-12-14T18:45:03.512Z,36.13
2022-12-14T18:47:33.690Z,37.00
2022-12-14T18:49:29.885Z,37.03
2022-12-14T18:51:32.970Z,34.88
2022-12-14T18:53:37.838Z,36.13
2022-12-14T18:55:41.990Z,35.42
2022-12-14T18:57:45.501Z,35.42
2022-12-14T18:59:48.528Z,39.72
2022-12-14T19:01:51.810Z,36.72
2022-12-14T19:03:55.171Z,36.08
2022-12-14T19:06:34.750Z,38.92
2022-12-14T19:08:28.790Z,44.67
2022-12-14T19:10:33.478Z,51.55
2022-12-14T19:12:36.569Z,58.85
2022-12-14T19:14:40.303Z,55.92
2022-12-14T19:16:43.385Z,48.70
2022-12-14T19:18:46.478Z,55.00
2022-12-14T19:20:49.959Z,48.63
2022-12-14T19:22:53.178Z,42.53
2022-12-14T19:24:56.942Z,50.75
2022-12-14T19:27:02.158Z,56.80
2022-12-14T19:29:06.294Z,52.28
2022-12-14T19:31:11.549Z,45.70
2022-12-14T19:33:15.094Z,50.92
2022-12-14T19:35:19.003Z,47.47
2022-12-14T19:37:23.015Z,48.67
2022-12-14T19:39:26.461Z,48.63
2022-12-14T19:41:29.467Z,43.00
2022-12-14T19:43:34.946Z,40.15
2022-12-14T19:45:39.597Z,39.80
2022-12-14T19:47:44.037Z,35.10
2022-12-14T19:49:47.052Z,41.20
2022-12-14T19:51:50.054Z,43.65
2022-12-14T19:53:53.729Z,43.40
2022-12-14T19:55:56.950Z,43.58
2022-12-14T19:58:00.023Z,45.83
2022-12-14T20:00:05.564Z,43.35
2022-12-14T20:02:16.855Z,46.35
2022-12-14T20:04:20.173Z,51.00
2022-12-14T20:06:23.297Z,46.85
2022-12-14T20:08:49.292Z,45.92
2022-12-14T20:10:53.711Z,48.22
2022-12-14T20:12:56.755Z,55.78
2022-12-14T20:15:00.089Z,51.35
2022-12-14T20:17:04.579Z,62.38
2022-12-14T20:19:08.280Z,54.40
2022-12-14T20:21:17.195Z,61.58
2022-12-14T20:23:25.006Z,56.00
2022-12-14T20:25:28.070Z,59.17
2022-12-14T20:27:34.832Z,59.05
2022-12-14T20:29:42.064Z,62.58
2022-12-14T20:31:45.267Z,51.65
2022-12-14T20:33:50.534Z,52.08
2022-12-14T20:35:54.067Z,46.10
2022-12-14T20:37:57.161Z,45.63
2022-12-14T20:40:00.151Z,41.90
2022-12-14T20:42:03.267Z,44.58
2022-12-14T20:44:09.283Z,45.58
2022-12-14T20:46:33.877Z,50.88
2022-12-14T20:48:37.146Z,60.53
2022-12-14T20:50:43.337Z,69.90
2022-12-14T20:52:46.438Z,88.75
2022-12-14T20:54:52.272Z,72.30
2022-12-14T20:56:56.308Z,75.95
2022-12-14T20:58:59.390Z,77.07
2022-12-14T21:01:07.083Z,64.80
2022-12-14T21:03:11.248Z,63.05
2022-12-14T21:05:14.624Z,48.83
2022-12-14T21:07:24.261Z,49.53
2022-12-14T21:09:28.985Z,49.65
2022-12-14T21:11:50.331Z,46.22
2022-12-14T21:13:53.528Z,47.85
2022-12-14T21:15:56.742Z,51.03
2022-12-14T21:17:59.945Z,49.45
2022-12-14T21:20:03.517Z,55.50
2022-12-14T21:22:08.239Z,53.22
2022-12-14T21:24:31.112Z,52.38
2022-12-14T21:26:37.892Z,48.10
2022-12-14T21:28:41.001Z,51.30
2022-12-14T21:30:44.062Z,51.67
2022-12-14T21:32:47.134Z,58.10
2022-12-14T21:34:52.734Z,50.83
2022-12-14T21:36:55.885Z,48.83
2022-12-14T21:38:58.945Z,48.88
2022-12-14T21:41:24.641Z,56.35
2022-12-14T21:43:28.002Z,59.30
2022-12-14T21:45:31.388Z,55.13
2022-12-14T21:47:34.916Z,52.97
2022-12-14T21:49:38.699Z,44.45
2022-12-14T21:51:41.906Z,42.65
2022-12-14T21:53:58.713Z,42.83
2022-12-14T21:56:21.952Z,43.40
2022-12-14T21:58:25.394Z,39.95
2022-12-14T22:00:28.549Z,44.95
2022-12-14T22:02:32.123Z,44.17
2022-12-14T22:04:39.709Z,43.15
2022-12-14T22:06:43.171Z,44.85
2022-12-14T22:08:46.354Z,45.50
2022-12-14T22:10:49.410Z,48.55
2022-12-14T22:12:52.490Z,49.63
2022-12-14T22:14:56.942Z,50.55
2022-12-14T22:17:00.160Z,48.92
2022-12-14T22:19:03.305Z,43.15
2022-12-14T22:21:07.499Z,45.15
2022-12-14T22:23:10.816Z,47.97
2022-12-14T22:25:13.862Z,45.40
2022-12-14T22:27:16.929Z,48.80
2022-12-14T22:29:22.008Z,48.13
2022-12-14T22:31:26.911Z,48.30
2022-12-14T22:33:31.280Z,49.00
2022-12-14T22:35:34.668Z,44.35
2022-12-14T22:37:37.751Z,44.92
2022-12-14T22:39:40.720Z,44.58
2022-12-14T22:41:43.915Z,44.97
2022-12-14T22:43:56.388Z,44.10
2022-12-14T22:46:01.532Z,45.75
2022-12-14T22:48:06.328Z,41.70
2022-12-14T22:50:10.272Z,47.85
2022-12-14T22:52:13.298Z,48.30
2022-12-14T22:54:19.101Z,43.92
2022-12-14T22:56:24.050Z,45.80
2022-12-14T22:58:28.519Z,47.75
2022-12-14T23:00:31.537Z,47.47
2022-12-14T23:02:35.103Z,47.20
2022-12-14T23:04:39.960Z,44.53
2022-12-14T23:06:43.164Z,45.33
2022-12-14T23:09:05.245Z,41.90
2022-12-14T23:11:26.458Z,43.58
2022-12-14T23:13:47.029Z,47.05
2022-12-14T23:16:07.939Z,42.80
2022-12-14T23:18:28.540Z,46.45
2022-12-14T23:20:50.827Z,44.35
2022-12-14T23:23:11.115Z,46.25
2022-12-14T23:25:31.524Z,41.80
2022-12-14T23:27:53.167Z,43.50
2022-12-14T23:30:13.811Z,42.67
2022-12-14T23:32:35.085Z,43.85
2022-12-14T23:34:55.642Z,46.08
2022-12-14T23:37:20.530Z,46.33
2022-12-14T23:39:41.254Z,45.53
2022-12-14T23:42:01.720Z,47.15
2022-12-14T23:44:22.272Z,43.30
2022-12-14T23:46:42.951Z,50.15
2022-12-14T23:49:03.386Z,43.88
2022-12-14T23:51:25.297Z,46.63
2022-12-14T23:53:49.919Z,53.08
2022-12-14T23:56:10.806Z,44.65
2022-12-14T23:58:31.138Z,45.90
